Buffalo, Nebraska
Current Conditions -  °F | °C
As of 10:53 PM on Wednesday 17 Dec 2014 (Local Time) from KHSI Reporting Station
Overcast Overcast  
Wind Chill: 18°   Ceiling: 2200
Heat Index: 25°   Visibility: 10mi
Dew Point: 18°   Wind: 6mph
Humidity: 75%   Direction: 140°SE
Pressure: 30.18"   Gusts: NA
Location:  40.3066°N, 98.7833°W
Report Text: KHSI 180453Z AUTO 14005KT 10SM OVC022 M04/M08 A3018 RMK AO2 SLP246 T10391078
Loading
Personal Weather Stations






























Interactive Weather Map New forecast layout! Learn more

10-Day Weather Forecast

Advertisements
Track Severe Weather on mobile